Time;durP1;ratioP1;P1;durP2;ratioP2;P2;SDS_P1;SDS_P2;PMS_P1;PMS_P2;Temp;Humidity;BMP_temperature;BMP_pressure;BME280_temperature;BME280_humidity;BME280_pressure;Samples;Min_cycle;Max_cycle;Signal;HPM_P1;HPM_P2
2023/02/07 00:01:08;;;;;;;2.30;2.17;;;;;;;;;;5075033;28;20228;-86
2023/02/07 00:03:36;;;;;;;2.45;2.05;;;;;;;;;;5076259;28;20225;-87
2023/02/07 00:06:08;;;;;;;3.35;3.05;;;;;;;;;;5076405;28;20204;-86
2023/02/07 00:08:38;;;;;;;2.97;2.50;;;;;;;;;;5075920;28;20312;-87
2023/02/07 00:11:07;;;;;;;2.47;2.25;;;;;;;;;;5076009;28;20287;-87
2023/02/07 00:13:35;;;;;;;3.22;3.00;;;;;;;;;;5076198;28;20772;-87
2023/02/07 00:16:03;;;;;;;3.08;2.80;;;;;;;;;;5075936;28;20319;-86
2023/02/07 00:18:30;;;;;;;2.83;2.63;;;;;;;;;;5075860;28;20315;-87
2023/02/07 00:20:59;;;;;;;5.97;3.97;;;;;;;;;;5076216;28;20204;-87
2023/02/07 00:23:27;;;;;;;3.95;3.60;;;;;;;;;;5076018;28;20292;-87
2023/02/07 00:25:56;;;;;;;3.78;3.42;;;;;;;;;;5075396;28;20717;-88
2023/02/07 00:28:23;;;;;;;4.03;3.50;;;;;;;;;;5075105;28;20312;-86
2023/02/07 00:30:51;;;;;;;5.28;4.53;;;;;;;;;;5075888;28;20227;-87
2023/02/07 00:33:19;;;;;;;4.15;3.75;;;;;;;;;;5075064;28;20223;-87
2023/02/07 00:35:46;;;;;;;4.25;3.85;;;;;;;;;;5075545;28;20296;-85
2023/02/07 00:38:14;;;;;;;4.35;3.70;;;;;;;;;;5074356;28;20668;-86
2023/02/07 00:40:41;;;;;;;4.50;4.10;;;;;;;;;;5075545;28;20670;-86
2023/02/07 00:43:10;;;;;;;5.15;4.65;;;;;;;;;;5075944;28;20655;-87
2023/02/07 00:45:37;;;;;;;4.32;3.92;;;;;;;;;;5075950;28;20663;-87
2023/02/07 00:48:05;;;;;;;4.43;4.03;;;;;;;;;;5078875;28;20630;-87
2023/02/07 00:50:33;;;;;;;3.78;3.47;;;;;;;;;;5086242;28;20228;-87
2023/02/07 00:53:00;;;;;;;4.90;4.15;;;;;;;;;;5075230;28;20307;-87
2023/02/07 00:55:28;;;;;;;3.85;3.45;;;;;;;;;;5075233;28;20201;-87
2023/02/07 00:57:55;;;;;;;4.15;3.63;;;;;;;;;;5075017;28;20268;-85
2023/02/07 01:00:24;;;;;;;3.92;2.97;;;;;;;;;;5074083;28;20235;-87
2023/02/07 01:02:52;;;;;;;3.67;3.20;;;;;;;;;;5075525;28;20284;-87
2023/02/07 01:05:19;;;;;;;3.03;2.72;;;;;;;;;;5075190;28;20295;-87
2023/02/07 01:07:47;;;;;;;3.78;3.40;;;;;;;;;;5075015;28;20307;-86
2023/02/07 01:10:14;;;;;;;4.13;3.83;;;;;;;;;;5074254;28;20299;-87
2023/02/07 01:12:42;;;;;;;3.80;3.40;;;;;;;;;;5074957;28;20296;-87
2023/02/07 01:15:10;;;;;;;3.90;3.55;;;;;;;;;;5074969;28;20228;-86
2023/02/07 01:17:38;;;;;;;4.43;4.00;;;;;;;;;;5075068;28;20308;-87
2023/02/07 01:20:07;;;;;;;5.80;5.20;;;;;;;;;;5082069;28;20280;-87
2023/02/07 01:22:35;;;;;;;4.20;3.75;;;;;;;;;;5074776;28;20208;-86
2023/02/07 01:25:02;;;;;;;2.78;2.58;;;;;;;;;;5075469;28;20207;-87
2023/02/07 01:27:30;;;;;;;3.17;2.97;;;;;;;;;;5074702;28;20311;-86
2023/02/07 01:29:57;;;;;;;3.60;3.30;;;;;;;;;;5074317;28;20239;-85
2023/02/07 01:32:25;;;;;;;4.43;4.03;;;;;;;;;;5074712;28;20247;-86
2023/02/07 01:34:54;;;;;;;4.38;3.83;;;;;;;;;;5075122;28;20778;-86
2023/02/07 01:37:21;;;;;;;4.00;3.55;;;;;;;;;;5075040;28;20296;-86
2023/02/07 01:39:49;;;;;;;4.20;3.80;;;;;;;;;;5074290;28;20236;-86
2023/02/07 01:42:17;;;;;;;4.20;3.67;;;;;;;;;;5074651;28;20291;-87
2023/02/07 01:45:15;;;;;;;3.42;3.13;;;;;;;;;;5076552;28;20289;-87
2023/02/07 01:47:43;;;;;;;4.07;3.67;;;;;;;;;;5086206;28;20228;-86
2023/02/07 01:50:11;;;;;;;3.75;3.42;;;;;;;;;;5074190;28;20424;-87
2023/02/07 01:52:41;;;;;;;3.28;2.92;;;;;;;;;;5074591;28;20236;-86
2023/02/07 01:55:12;;;;;;;3.22;2.92;;;;;;;;;;5074518;28;20319;-86
2023/02/07 01:57:40;;;;;;;4.07;3.78;;;;;;;;;;5074274;28;20308;-86
2023/02/07 02:00:09;;;;;;;5.47;4.45;;;;;;;;;;5072860;28;20221;-87
2023/02/07 02:02:37;;;;;;;5.10;4.60;;;;;;;;;;5073590;28;20253;-86
2023/02/07 02:05:06;;;;;;;4.80;4.35;;;;;;;;;;5074127;28;20292;-87
2023/02/07 02:07:35;;;;;;;5.07;3.97;;;;;;;;;;5074012;28;20303;-86
2023/02/07 02:10:06;;;;;;;5.43;4.93;;;;;;;;;;5073406;28;20295;-86
2023/02/07 02:13:14;;;;;;;4.72;4.25;;;;;;;;;;5074309;28;20213;-87
2023/02/07 02:15:57;;;;;;;3.83;3.55;;;;;;;;;;5066092;28;20288;-86
2023/02/07 02:18:43;;;;;;;3.45;3.15;;;;;;;;;;5073607;28;20286;-87
2023/02/07 02:21:57;;;;;;;5.00;4.50;;;;;;;;;;5073678;28;20272;-86
2023/02/07 02:25:02;;;;;;;4.30;3.45;;;;;;;;;;5074006;28;20193;-87
2023/02/07 02:27:59;;;;;;;5.80;4.00;;;;;;;;;;5074088;28;20732;-87
2023/02/07 02:31:17;;;;;;;3.60;3.30;;;;;;;;;;5063341;28;20634;-86
2023/02/07 02:33:49;;;;;;;5.13;4.45;;;;;;;;;;5058228;28;20312;-87
2023/02/07 02:36:28;;;;;;;4.93;4.25;;;;;;;;;;5073955;28;20279;-87
2023/02/07 02:39:03;;;;;;;4.07;3.65;;;;;;;;;;5073459;28;20312;-87
2023/02/07 02:41:35;;;;;;;3.70;3.33;;;;;;;;;;5074083;28;20682;-87
2023/02/07 02:44:07;;;;;;;4.75;4.25;;;;;;;;;;5074125;28;20617;-86
2023/02/07 02:46:38;;;;;;;3.50;3.17;;;;;;;;;;5073776;28;20276;-87
2023/02/07 02:49:10;;;;;;;3.95;3.65;;;;;;;;;;5073066;28;20225;-87
2023/02/07 02:51:37;;;;;;;4.78;4.15;;;;;;;;;;5073755;28;20894;-87
2023/02/07 02:54:20;;;;;;;3.22;2.92;;;;;;;;;;5073426;28;20311;-87
2023/02/07 02:57:26;;;;;;;3.35;3.00;;;;;;;;;;5073213;28;20240;-87
2023/02/07 03:00:31;;;;;;;2.78;2.60;;;;;;;;;;5072471;28;20196;-87
2023/02/07 03:03:19;;;;;;;3.17;2.88;;;;;;;;;;5071135;28;20197;-87
2023/02/07 03:05:57;;;;;;;3.97;3.67;;;;;;;;;;5073761;28;20311;-87
2023/02/07 03:08:34;;;;;;;2.90;2.70;;;;;;;;;;5072941;28;20745;-87
2023/02/07 03:11:09;;;;;;;3.22;3.03;;;;;;;;;;5073729;28;20275;-87
2023/02/07 03:13:56;;;;;;;3.15;2.95;;;;;;;;;;5073838;28;20246;-87
2023/02/07 03:16:28;;;;;;;3.38;3.08;;;;;;;;;;5073186;28;20277;-87
2023/02/07 03:19:01;;;;;;;3.25;2.95;;;;;;;;;;5072647;28;20266;-87
2023/02/07 03:21:34;;;;;;;3.03;2.67;;;;;;;;;;5073787;28;20547;-86
2023/02/07 03:24:05;;;;;;;3.40;3.10;;;;;;;;;;5073766;28;20212;-87
2023/02/07 03:26:34;;;;;;;3.33;3.03;;;;;;;;;;5073458;28;20249;-87
2023/02/07 03:29:02;;;;;;;2.83;2.63;;;;;;;;;;5072845;28;20252;-87
2023/02/07 03:31:30;;;;;;;4.07;3.67;;;;;;;;;;5072787;28;20254;-87
2023/02/07 03:34:04;;;;;;;3.35;3.05;;;;;;;;;;5073097;28;20300;-87
2023/02/07 03:36:40;;;;;;;3.40;3.03;;;;;;;;;;5073659;28;20213;-87
2023/02/07 03:39:07;;;;;;;3.50;3.20;;;;;;;;;;5072911;28;20252;-87
2023/02/07 03:41:38;;;;;;;3.42;3.13;;;;;;;;;;5073045;28;20241;-87
2023/02/07 03:44:06;;;;;;;3.20;3.00;;;;;;;;;;5073528;28;20236;-87
2023/02/07 03:46:37;;;;;;;3.38;3.17;;;;;;;;;;5073243;28;20212;-87
2023/02/07 03:49:06;;;;;;;4.22;3.83;;;;;;;;;;5072791;28;20256;-87
2023/02/07 03:51:36;;;;;;;4.03;3.55;;;;;;;;;;5073663;28;20717;-87
2023/02/07 03:54:03;;;;;;;5.38;4.65;;;;;;;;;;5073475;28;20201;-87
2023/02/07 03:56:31;;;;;;;3.70;3.40;;;;;;;;;;5073186;28;20307;-87
2023/02/07 03:58:58;;;;;;;3.80;3.35;;;;;;;;;;5072922;28;20263;-87
2023/02/07 04:01:26;;;;;;;4.38;3.53;;;;;;;;;;5071561;28;20232;-87
2023/02/07 04:03:53;;;;;;;4.07;3.58;;;;;;;;;;5073587;28;20243;-87
2023/02/07 04:06:21;;;;;;;3.80;3.50;;;;;;;;;;5073323;28;20217;-87
2023/02/07 04:08:50;;;;;;;3.50;3.20;;;;;;;;;;5072583;28;20303;-87
2023/02/07 04:11:18;;;;;;;3.22;2.92;;;;;;;;;;5073316;28;20247;-87
2023/02/07 04:13:45;;;;;;;3.47;3.10;;;;;;;;;;5073362;28;20275;-87
2023/02/07 04:16:13;;;;;;;2.97;2.50;;;;;;;;;;5072964;28;20248;-86
2023/02/07 04:18:40;;;;;;;4.28;3.88;;;;;;;;;;5072593;28;20713;-87
2023/02/07 04:21:09;;;;;;;3.90;3.60;;;;;;;;;;5072873;28;20288;-87
2023/02/07 04:23:37;;;;;;;3.63;3.33;;;;;;;;;;5073318;28;20201;-87
2023/02/07 04:26:06;;;;;;;4.03;3.58;;;;;;;;;;5073173;28;20638;-87
2023/02/07 04:28:33;;;;;;;3.88;3.45;;;;;;;;;;5072908;28;20221;-87
2023/02/07 04:31:01;;;;;;;4.05;3.75;;;;;;;;;;5072884;28;20637;-87
2023/02/07 04:33:28;;;;;;;3.92;3.55;;;;;;;;;;5071388;28;20251;-87
2023/02/07 04:35:56;;;;;;;4.00;3.65;;;;;;;;;;5073335;28;20231;-88
2023/02/07 04:38:24;;;;;;;3.25;2.95;;;;;;;;;;5072460;28;20256;-87
2023/02/07 04:40:52;;;;;;;3.78;3.47;;;;;;;;;;5073076;28;20232;-87
2023/02/07 04:43:21;;;;;;;5.82;3.47;;;;;;;;;;5073107;28;20286;-87
2023/02/07 04:45:48;;;;;;;3.83;3.50;;;;;;;;;;5075264;28;20237;-87
2023/02/07 04:48:16;;;;;;;3.88;3.45;;;;;;;;;;5075784;28;20294;-87
2023/02/07 04:50:44;;;;;;;4.00;3.55;;;;;;;;;;5076830;28;20724;-87
2023/02/07 04:53:12;;;;;;;4.68;4.28;;;;;;;;;;5076666;28;20197;-87
2023/02/07 04:55:39;;;;;;;4.53;4.13;;;;;;;;;;5076792;28;20300;-87
2023/02/07 04:58:07;;;;;;;3.88;3.58;;;;;;;;;;5075774;28;20240;-87
2023/02/07 05:00:36;;;;;;;3.85;3.45;;;;;;;;;;5074941;28;20232;-87
2023/02/07 05:03:04;;;;;;;4.32;4.03;;;;;;;;;;5076510;28;20239;-87
2023/02/07 05:05:31;;;;;;;3.40;3.10;;;;;;;;;;5076539;28;20293;-86
2023/02/07 05:07:59;;;;;;;4.93;4.43;;;;;;;;;;5075878;28;20311;-87
2023/02/07 05:10:26;;;;;;;3.97;3.58;;;;;;;;;;5076569;28;20292;-86
2023/02/07 05:12:54;;;;;;;3.60;3.30;;;;;;;;;;5076501;28;20221;-87
2023/02/07 05:15:22;;;;;;;4.60;3.85;;;;;;;;;;5076903;28;20260;-87
2023/02/07 05:17:51;;;;;;;3.75;3.20;;;;;;;;;;5076661;28;20221;-86
2023/02/07 05:20:18;;;;;;;3.25;2.92;;;;;;;;;;5075979;28;20196;-87
2023/02/07 05:22:46;;;;;;;3.70;3.40;;;;;;;;;;5076388;28;20231;-87
2023/02/07 05:25:14;;;;;;;4.95;4.38;;;;;;;;;;5077104;28;20699;-87
2023/02/07 05:27:41;;;;;;;4.88;4.25;;;;;;;;;;5076427;28;20216;-86
2023/02/07 05:30:10;;;;;;;4.43;4.03;;;;;;;;;;5075862;28;20232;-87
2023/02/07 05:35:24;;;;;;;5.43;4.05;;;;;;;;;;5076301;28;20243;-86
2023/02/07 05:37:52;;;;;;;5.53;4.70;;;;;;;;;;5076096;28;20220;-87
2023/02/07 05:40:20;;;;;;;5.68;5.07;;;;;;;;;;5075422;28;20243;-87
2023/02/07 05:42:47;;;;;;;4.97;4.43;;;;;;;;;;5075037;28;20236;-87
2023/02/07 05:45:15;;;;;;;5.07;4.55;;;;;;;;;;5074846;28;20223;-87
2023/02/07 05:47:42;;;;;;;5.38;4.97;;;;;;;;;;5074948;28;20656;-87
2023/02/07 05:50:10;;;;;;;5.70;4.63;;;;;;;;;;5077256;28;20239;-88
2023/02/07 05:52:39;;;;;;;5.50;5.00;;;;;;;;;;5076377;28;20229;-88
2023/02/07 05:55:08;;;;;;;6.00;5.15;;;;;;;;;;5074689;28;20232;-87
2023/02/07 05:57:36;;;;;;;4.63;4.07;;;;;;;;;;5073230;28;20229;-88
2023/02/07 06:00:05;;;;;;;5.88;4.57;;;;;;;;;;5073527;28;20875;-86
2023/02/07 06:02:32;;;;;;;5.53;4.63;;;;;;;;;;5076656;28;20197;-86
2023/02/07 06:05:00;;;;;;;6.70;5.15;;;;;;;;;;5076694;28;20265;-86
2023/02/07 06:07:27;;;;;;;6.60;5.30;;;;;;;;;;5076249;28;20311;-86
2023/02/07 06:09:56;;;;;;;6.80;5.57;;;;;;;;;;5076299;28;20258;-86
2023/02/07 06:12:24;;;;;;;6.15;5.55;;;;;;;;;;5077153;28;20890;-86
2023/02/07 06:14:51;;;;;;;6.60;5.75;;;;;;;;;;5077054;28;20232;-86
2023/02/07 06:17:19;;;;;;;7.22;6.18;;;;;;;;;;5075930;28;20217;-86
2023/02/07 06:19:47;;;;;;;5.18;4.50;;;;;;;;;;5117364;22;20325;-81
2023/02/07 06:22:15;;;;;;;5.28;4.78;;;;;;;;;;5036721;28;20202;-81
2023/02/07 06:24:42;;;;;;;6.53;5.03;;;;;;;;;;5037074;28;20305;-83
2023/02/07 06:27:11;;;;;;;4.90;4.47;;;;;;;;;;5040296;28;20269;-80
2023/02/07 06:29:38;;;;;;;5.95;4.93;;;;;;;;;;5048019;28;20233;-80
2023/02/07 06:32:06;;;;;;;6.72;6.05;;;;;;;;;;5047343;28;20230;-83
2023/02/07 06:34:33;;;;;;;7.32;4.70;;;;;;;;;;5080333;22;20280;-87
2023/02/07 06:37:01;;;;;;;6.20;5.60;;;;;;;;;;5087035;28;20304;-86
2023/02/07 06:39:28;;;;;;;7.05;6.35;;;;;;;;;;5075591;28;20252;-85
2023/02/07 06:41:56;;;;;;;6.05;5.30;;;;;;;;;;5054623;28;20288;-88
2023/02/07 06:44:25;;;;;;;5.43;4.93;;;;;;;;;;5055634;28;20297;-88
2023/02/07 06:46:52;;;;;;;5.50;4.60;;;;;;;;;;5055882;28;20746;-89
2023/02/07 06:49:20;;;;;;;4.47;4.03;;;;;;;;;;5066660;28;20672;-89
2023/02/07 06:51:47;;;;;;;5.82;5.13;;;;;;;;;;5056807;28;20237;-88
2023/02/07 06:54:14;;;;;;;5.55;4.57;;;;;;;;;;5056106;28;20793;-87
2023/02/07 06:56:42;;;;;;;6.22;5.43;;;;;;;;;;5055418;28;20225;-87
2023/02/07 06:59:09;;;;;;;6.25;5.35;;;;;;;;;;5053641;28;20255;-87
2023/02/07 07:01:38;;;;;;;6.50;5.32;;;;;;;;;;5054225;28;20280;-84
2023/02/07 07:04:06;;;;;;;6.63;5.68;;;;;;;;;;5054926;28;20233;-84
2023/02/07 07:06:33;;;;;;;5.00;4.50;;;;;;;;;;5054721;28;20198;-88
2023/02/07 07:09:01;;;;;;;6.70;5.97;;;;;;;;;;5054177;28;20293;-85
2023/02/07 07:11:28;;;;;;;5.80;5.22;;;;;;;;;;5054562;28;20231;-88
2023/02/07 07:13:56;;;;;;;8.18;6.80;;;;;;;;;;5053359;28;20225;-86
2023/02/07 07:16:24;;;;;;;6.20;5.60;;;;;;;;;;5053373;28;20205;-86
2023/02/07 07:18:53;;;;;;;5.13;4.63;;;;;;;;;;5069991;28;20236;-85
2023/02/07 07:21:20;;;;;;;5.43;4.45;;;;;;;;;;5072933;28;20256;-86
2023/02/07 07:23:48;;;;;;;4.97;4.38;;;;;;;;;;5072934;28;20240;-88
2023/02/07 07:26:15;;;;;;;5.03;4.53;;;;;;;;;;5072972;28;20202;-87
2023/02/07 07:28:42;;;;;;;4.57;4.13;;;;;;;;;;5072371;28;20288;-87
2023/02/07 07:31:10;;;;;;;5.35;4.60;;;;;;;;;;5072662;28;20252;-87
2023/02/07 07:33:38;;;;;;;8.00;6.25;;;;;;;;;;5072956;28;20284;-84
2023/02/07 07:36:08;;;;;;;9.40;7.60;;;;;;;;;;5072529;28;20299;-87
2023/02/07 07:38:35;;;;;;;7.95;6.28;;;;;;;;;;5072976;28;20675;-88
2023/02/07 07:41:03;;;;;;;10.65;7.55;;;;;;;;;;5073198;28;20228;-88
2023/02/07 07:43:30;;;;;;;9.02;7.50;;;;;;;;;;5073011;28;20292;-86
2023/02/07 07:46:00;;;;;;;10.10;8.18;;;;;;;;;;5073136;28;20296;-86
2023/02/07 07:48:28;;;;;;;10.57;7.75;;;;;;;;;;5072781;28;20268;-88
2023/02/07 07:50:55;;;;;;;10.35;7.65;;;;;;;;;;5072817;28;20308;-87
2023/02/07 07:53:24;;;;;;;12.63;8.40;;;;;;;;;;5073102;28;20284;-86
2023/02/07 07:55:53;;;;;;;10.18;8.10;;;;;;;;;;5072539;28;20639;-88
2023/02/07 07:58:22;;;;;;;12.15;10.38;;;;;;;;;;5073043;28;20737;-87
2023/02/07 08:00:49;;;;;;;8.45;7.30;;;;;;;;;;5073078;28;20315;-88
2023/02/07 08:03:18;;;;;;;10.48;8.80;;;;;;;;;;5073427;28;20240;-87
2023/02/07 08:05:46;;;;;;;11.90;8.82;;;;;;;;;;5072930;28;20197;-86
2023/02/07 08:08:14;;;;;;;12.23;10.73;;;;;;;;;;5073266;28;20561;-87
2023/02/07 08:10:43;;;;;;;13.90;11.43;;;;;;;;;;5073201;28;20307;-88
2023/02/07 08:13:11;;;;;;;14.52;11.35;;;;;;;;;;5072392;28;20291;-87
2023/02/07 08:15:39;;;;;;;13.75;10.10;;;;;;;;;;5072667;28;20292;-88
2023/02/07 08:18:07;;;;;;;25.17;10.70;;;;;;;;;;5072917;28;20736;-85
2023/02/07 08:20:34;;;;;;;12.30;9.70;;;;;;;;;;5074086;28;20296;-86
2023/02/07 08:23:02;;;;;;;13.35;11.05;;;;;;;;;;5076534;28;20631;-86
2023/02/07 08:25:29;;;;;;;12.35;10.30;;;;;;;;;;5076806;28;20263;-86
2023/02/07 08:27:58;;;;;;;13.82;10.32;;;;;;;;;;5076545;28;20236;-85
2023/02/07 08:30:26;;;;;;;12.13;9.68;;;;;;;;;;5076521;28;20308;-85
2023/02/07 08:32:54;;;;;;;11.02;9.88;;;;;;;;;;5075965;28;20254;-85
2023/02/07 08:35:22;;;;;;;15.32;11.38;;;;;;;;;;5075404;28;20209;-86
2023/02/07 08:37:50;;;;;;;9.77;8.77;;;;;;;;;;5076102;28;20678;-86
2023/02/07 08:40:18;;;;;;;12.32;10.43;;;;;;;;;;5075525;28;20257;-88
2023/02/07 08:42:46;;;;;;;14.00;10.18;;;;;;;;;;5075737;28;20248;-86
2023/02/07 08:45:16;;;;;;;10.27;8.65;;;;;;;;;;5075769;28;20247;-85
2023/02/07 08:47:44;;;;;;;8.73;7.03;;;;;;;;;;5075482;28;20185;-86
2023/02/07 08:50:13;;;;;;;10.88;8.80;;;;;;;;;;5075011;28;20221;-85
2023/02/07 08:52:41;;;;;;;7.53;6.82;;;;;;;;;;5075333;28;20734;-87
2023/02/07 08:55:09;;;;;;;8.38;7.28;;;;;;;;;;5075664;28;20644;-86
2023/02/07 08:57:36;;;;;;;11.73;9.32;;;;;;;;;;5075322;28;20231;-86
2023/02/07 09:00:06;;;;;;;10.57;9.23;;;;;;;;;;5074674;28;20757;-87
2023/02/07 09:02:34;;;;;;;10.63;8.88;;;;;;;;;;5075482;28;20193;-88
2023/02/07 09:05:02;;;;;;;9.18;8.32;;;;;;;;;;5074914;28;20292;-87
2023/02/07 09:07:30;;;;;;;8.40;7.60;;;;;;;;;;5074908;28;20262;-86
2023/02/07 09:09:58;;;;;;;11.80;9.80;;;;;;;;;;5074829;28;20362;-86
2023/02/07 09:12:25;;;;;;;9.45;8.48;;;;;;;;;;5074829;28;20220;-88
2023/02/07 09:14:53;;;;;;;9.93;8.80;;;;;;;;;;5074722;28;20264;-87
2023/02/07 09:17:20;;;;;;;11.73;10.02;;;;;;;;;;5075146;28;20295;-86
2023/02/07 09:19:49;;;;;;;9.98;8.82;;;;;;;;;;5074267;28;20307;-87
2023/02/07 09:22:17;;;;;;;15.07;11.65;;;;;;;;;;5074614;28;20292;-86
2023/02/07 09:24:44;;;;;;;9.70;8.77;;;;;;;;;;5075269;28;20632;-86
2023/02/07 09:27:12;;;;;;;9.18;7.57;;;;;;;;;;5074925;28;20658;-87
2023/02/07 09:29:39;;;;;;;8.73;7.72;;;;;;;;;;5074174;28;20224;-86
2023/02/07 09:32:07;;;;;;;8.18;7.38;;;;;;;;;;5074702;28;20820;-88
2023/02/07 09:34:35;;;;;;;9.85;8.35;;;;;;;;;;5074950;28;20300;-86
2023/02/07 09:37:04;;;;;;;11.20;9.68;;;;;;;;;;5074716;28;20232;-86
2023/02/07 09:39:32;;;;;;;10.95;9.05;;;;;;;;;;5074409;28;20278;-87
2023/02/07 09:42:10;;;;;;;9.75;8.48;;;;;;;;;;5074658;28;20192;-87
2023/02/07 09:44:49;;;;;;;12.75;10.13;;;;;;;;;;5073372;28;20292;-88
2023/02/07 09:47:20;;;;;;;13.48;9.95;;;;;;;;;;5074179;28;20296;-86
2023/02/07 09:49:51;;;;;;;12.60;10.38;;;;;;;;;;5074344;28;20216;-87
2023/02/07 09:52:24;;;;;;;10.25;9.15;;;;;;;;;;5074460;28;20690;-87
2023/02/07 09:54:53;;;;;;;13.60;10.52;;;;;;;;;;5074601;28;20217;-88
2023/02/07 09:57:25;;;;;;;11.93;10.52;;;;;;;;;;5074842;28;20287;-86
2023/02/07 09:59:58;;;;;;;10.82;9.15;;;;;;;;;;5073348;28;20324;-87
2023/02/07 10:02:30;;;;;;;11.57;10.38;;;;;;;;;;5074599;28;20207;-87
2023/02/07 10:05:02;;;;;;;11.80;9.05;;;;;;;;;;5074790;28;20689;-87
2023/02/07 10:07:31;;;;;;;15.05;10.98;;;;;;;;;;5074737;28;20276;-86
2023/02/07 10:09:59;;;;;;;13.88;12.10;;;;;;;;;;5074077;28;20308;-88
2023/02/07 10:12:53;;;;;;;11.75;9.60;;;;;;;;;;5076089;28;20319;-87
2023/02/07 10:15:38;;;;;;;12.23;10.43;;;;;;;;;;5075301;28;20286;-86
2023/02/07 10:18:30;;;;;;;14.65;10.52;;;;;;;;;;5074340;28;20272;-87
2023/02/07 10:21:05;;;;;;;9.65;8.68;;;;;;;;;;5076265;28;20292;-87
2023/02/07 10:24:22;;;;;;;10.85;9.77;;;;;;;;;;5076344;28;20215;-87
2023/02/07 10:26:54;;;;;;;11.07;9.07;;;;;;;;;;5055059;28;20232;-87
2023/02/07 10:29:41;;;;;;;10.65;9.25;;;;;;;;;;5074286;28;20562;-87
2023/02/07 10:32:22;;;;;;;10.05;8.88;;;;;;;;;;5056433;28;20264;-86
2023/02/07 10:34:52;;;;;;;10.05;9.00;;;;;;;;;;5058040;28;20244;-85
2023/02/07 10:37:22;;;;;;;10.07;8.27;;;;;;;;;;5075182;28;20244;-88
2023/02/07 10:39:58;;;;;;;10.13;8.98;;;;;;;;;;5065604;28;20218;-86
2023/02/07 10:42:29;;;;;;;9.77;8.40;;;;;;;;;;5055067;28;20185;-88
2023/02/07 10:44:57;;;;;;;9.68;8.45;;;;;;;;;;5056011;28;20205;-88
2023/02/07 10:47:25;;;;;;;9.95;8.07;;;;;;;;;;5056379;28;20198;-87
2023/02/07 10:49:55;;;;;;;10.32;8.82;;;;;;;;;;5055969;28;20218;-88
2023/02/07 10:52:30;;;;;;;10.63;8.73;;;;;;;;;;5056314;28;20198;-86
2023/02/07 10:55:01;;;;;;;10.57;8.88;;;;;;;;;;5055307;28;20235;-88
2023/02/07 10:57:31;;;;;;;12.30;10.07;;;;;;;;;;5055435;28;20269;-88
2023/02/07 11:00:03;;;;;;;12.75;9.82;;;;;;;;;;5056170;28;20253;-87
2023/02/07 11:02:50;;;;;;;11.25;9.98;;;;;;;;;;5054985;28;20213;-86
2023/02/07 11:05:40;;;;;;;10.90;9.63;;;;;;;;;;5053810;28;20197;-88
2023/02/07 11:08:21;;;;;;;8.95;8.05;;;;;;;;;;5054181;28;20182;-88
2023/02/07 11:10:50;;;;;;;10.20;8.68;;;;;;;;;;5054288;28;20616;-87
2023/02/07 11:13:22;;;;;;;7.18;6.47;;;;;;;;;;5054042;28;20634;-87
2023/02/07 11:16:00;;;;;;;9.02;8.13;;;;;;;;;;5054575;28;20618;-87
2023/02/07 11:18:36;;;;;;;7.95;7.13;;;;;;;;;;5054217;28;20282;-88
2023/02/07 11:21:07;;;;;;;10.43;8.52;;;;;;;;;;5054615;28;20655;-88
2023/02/07 11:23:34;;;;;;;9.60;7.97;;;;;;;;;;5054500;28;20273;-87
2023/02/07 11:26:02;;;;;;;9.10;8.23;;;;;;;;;;5054564;28;20293;-87
2023/02/07 11:28:33;;;;;;;9.10;7.45;;;;;;;;;;5054245;28;20290;-86
2023/02/07 11:31:04;;;;;;;9.32;8.43;;;;;;;;;;5054498;28;20248;-87
2023/02/07 11:33:37;;;;;;;7.97;7.18;;;;;;;;;;5054235;28;20272;-87
2023/02/07 11:36:12;;;;;;;11.80;9.05;;;;;;;;;;5066058;28;20221;-88
2023/02/07 11:38:41;;;;;;;9.50;8.43;;;;;;;;;;5074382;28;20181;-86
2023/02/07 11:41:18;;;;;;;7.95;6.82;;;;;;;;;;5074027;28;20294;-88
2023/02/07 11:44:01;;;;;;;7.80;6.75;;;;;;;;;;5073987;28;20240;-87
2023/02/07 11:46:36;;;;;;;8.00;7.20;;;;;;;;;;5074055;28;20288;-88
2023/02/07 11:49:05;;;;;;;7.15;6.28;;;;;;;;;;5074087;28;20692;-87
2023/02/07 11:51:34;;;;;;;8.52;6.90;;;;;;;;;;5074110;28;20676;-87
2023/02/07 11:54:03;;;;;;;7.43;6.72;;;;;;;;;;5073891;28;20204;-88
2023/02/07 11:56:34;;;;;;;7.40;6.25;;;;;;;;;;5077398;28;20284;-87
2023/02/07 11:59:05;;;;;;;6.70;6.00;;;;;;;;;;5078062;28;20197;-88
2023/02/07 12:01:34;;;;;;;5.95;5.43;;;;;;;;;;5078356;28;20692;-88
2023/02/07 12:04:08;;;;;;;6.38;5.68;;;;;;;;;;5079473;28;20232;-87
2023/02/07 12:06:40;;;;;;;6.13;5.53;;;;;;;;;;5078399;28;20628;-87
2023/02/07 12:09:21;;;;;;;6.15;5.55;;;;;;;;;;5078096;28;20273;-87
2023/02/07 12:11:50;;;;;;;6.45;5.10;;;;;;;;;;5078205;28;20204;-88
2023/02/07 12:14:25;;;;;;;5.82;5.30;;;;;;;;;;5077624;28;20232;-87
2023/02/07 12:16:56;;;;;;;5.93;5.43;;;;;;;;;;5078326;28;20277;-87
2023/02/07 12:19:28;;;;;;;7.32;5.72;;;;;;;;;;5078113;28;20216;-86
2023/02/07 12:22:00;;;;;;;6.75;5.05;;;;;;;;;;5091031;22;20328;-84
2023/02/07 12:24:33;;;;;;;6.40;5.80;;;;;;;;;;5075511;28;20182;-86
2023/02/07 12:27:05;;;;;;;7.88;6.28;;;;;;;;;;5075560;28;20208;-84
2023/02/07 12:29:49;;;;;;;6.05;5.45;;;;;;;;;;5075400;28;20197;-84
2023/02/07 12:32:28;;;;;;;6.97;5.88;;;;;;;;;;5052477;28;20227;-84
2023/02/07 12:35:04;;;;;;;4.97;4.47;;;;;;;;;;5035158;28;20183;-85
2023/02/07 12:37:39;;;;;;;5.85;5.28;;;;;;;;;;5034949;28;20209;-85
2023/02/07 12:40:18;;;;;;;5.80;5.25;;;;;;;;;;5034696;28;20225;-85
2023/02/07 12:42:50;;;;;;;5.43;4.93;;;;;;;;;;5034892;28;20190;-85
2023/02/07 12:45:27;;;;;;;5.32;4.30;;;;;;;;;;5035203;28;20194;-85
2023/02/07 12:48:04;;;;;;;5.45;4.88;;;;;;;;;;5034558;28;20267;-85
2023/02/07 12:50:49;;;;;;;5.22;4.72;;;;;;;;;;5035217;28;20309;-85
2023/02/07 12:53:31;;;;;;;5.50;4.60;;;;;;;;;;5034827;28;20186;-86
2023/02/07 12:56:10;;;;;;;6.88;5.95;;;;;;;;;;5034770;28;20281;-85
2023/02/07 12:58:49;;;;;;;5.85;5.00;;;;;;;;;;5034701;28;20186;-85
2023/02/07 13:01:23;;;;;;;6.32;5.72;;;;;;;;;;5034317;28;20316;-86
2023/02/07 13:04:23;;;;;;;5.45;4.95;;;;;;;;;;5034672;28;20198;-85
2023/02/07 13:07:11;;;;;;;7.18;5.20;;;;;;;;;;5034197;28;20212;-86
2023/02/07 13:09:43;;;;;;;6.15;5.55;;;;;;;;;;5034393;28;20187;-86
2023/02/07 13:12:14;;;;;;;6.43;4.60;;;;;;;;;;5034318;28;20237;-85
2023/02/07 13:15:02;;;;;;;4.78;4.30;;;;;;;;;;5034726;28;20191;-85
2023/02/07 13:17:48;;;;;;;3.97;3.63;;;;;;;;;;5034695;28;20233;-86
2023/02/07 13:20:29;;;;;;;4.32;3.92;;;;;;;;;;5034551;28;20229;-86
2023/02/07 13:22:59;;;;;;;4.60;4.20;;;;;;;;;;5034920;28;20201;-85
2023/02/07 13:25:31;;;;;;;6.32;5.25;;;;;;;;;;5033824;28;20202;-85
2023/02/07 13:28:03;;;;;;;6.93;6.22;;;;;;;;;;5034140;28;20186;-85
2023/02/07 13:30:31;;;;;;;6.78;5.50;;;;;;;;;;5034644;28;20227;-86
2023/02/07 13:33:06;;;;;;;7.63;6.18;;;;;;;;;;5034259;28;20212;-86
2023/02/07 13:35:35;;;;;;;5.97;5.40;;;;;;;;;;5034755;28;20202;-86
2023/02/07 13:38:07;;;;;;;6.15;5.55;;;;;;;;;;5034172;28;20230;-83
2023/02/07 13:40:40;;;;;;;6.05;5.47;;;;;;;;;;5034004;28;20276;-86
2023/02/07 13:43:12;;;;;;;8.40;5.82;;;;;;;;;;5034182;28;20269;-85
2023/02/07 13:45:48;;;;;;;6.05;5.45;;;;;;;;;;5034615;28;20663;-86
2023/02/07 13:48:24;;;;;;;5.57;5.07;;;;;;;;;;5033864;28;20213;-86
2023/02/07 13:51:00;;;;;;;6.30;5.70;;;;;;;;;;5034346;28;20229;-86
2023/02/07 13:53:40;;;;;;;6.85;5.68;;;;;;;;;;5034124;28;20210;-87
2023/02/07 13:59:37;;;;;;;6.90;6.20;;;;;;;;;;5034274;28;20190;-85
2023/02/07 14:01:52;;;;;;;8.88;7.82;;;;;;;;;;5033675;28;20236;-85
2023/02/07 14:04:23;;;;;;;6.30;5.70;;;;;;;;;;5034065;28;20218;-86
2023/02/07 14:07:04;;;;;;;6.18;5.25;;;;;;;;;;5033672;28;20301;-85
2023/02/07 14:09:35;;;;;;;4.50;4.10;;;;;;;;;;5033414;28;20302;-86
2023/02/07 14:12:04;;;;;;;6.22;5.18;;;;;;;;;;5033634;28;20226;-85
2023/02/07 14:14:34;;;;;;;4.40;4.00;;;;;;;;;;5033995;28;20207;-86
2023/02/07 14:17:04;;;;;;;5.57;4.65;;;;;;;;;;5033544;28;20289;-85
2023/02/07 14:19:54;;;;;;;4.72;3.72;;;;;;;;;;5032917;28;20206;-85
2023/02/07 14:22:26;;;;;;;3.97;3.35;;;;;;;;;;5033640;28;20202;-85
2023/02/07 14:25:18;;;;;;;5.13;4.63;;;;;;;;;;5033239;28;20193;-86
2023/02/07 14:28:23;;;;;;;3.67;3.38;;;;;;;;;;5027668;28;20214;-86
2023/02/07 14:31:21;;;;;;;3.90;3.60;;;;;;;;;;5033332;28;20306;-86
2023/02/07 14:34:13;;;;;;;4.80;4.30;;;;;;;;;;5020937;28;20220;-86
2023/02/07 14:36:43;;;;;;;4.43;4.03;;;;;;;;;;5033388;28;20186;-85
2023/02/07 14:39:32;;;;;;;6.10;5.00;;;;;;;;;;5032767;28;20293;-86
2023/02/07 14:42:11;;;;;;;4.78;4.10;;;;;;;;;;5029500;28;20686;-86
2023/02/07 14:44:41;;;;;;;3.92;3.63;;;;;;;;;;5032615;28;20408;-85
2023/02/07 14:47:15;;;;;;;3.67;3.38;;;;;;;;;;5033002;28;20663;-85
2023/02/07 14:49:45;;;;;;;5.50;4.60;;;;;;;;;;5032601;28;20190;-86
2023/02/07 14:52:21;;;;;;;5.53;5.07;;;;;;;;;;5032338;28;20197;-86
2023/02/07 14:54:52;;;;;;;4.57;3.55;;;;;;;;;;5032560;28;20194;-86
2023/02/07 14:57:32;;;;;;;4.82;4.32;;;;;;;;;;5032338;28;20275;-85
2023/02/07 15:00:04;;;;;;;3.17;2.88;;;;;;;;;;5032233;28;20206;-84
2023/02/07 15:02:38;;;;;;;7.90;4.10;;;;;;;;;;5032762;28;20691;-86
2023/02/07 15:05:20;;;;;;;3.78;3.47;;;;;;;;;;5032472;28;20597;-85
2023/02/07 15:07:54;;;;;;;2.88;2.50;;;;;;;;;;5032730;28;20281;-85
2023/02/07 15:10:25;;;;;;;2.47;2.28;;;;;;;;;;5032349;28;20249;-86
2023/02/07 15:12:56;;;;;;;2.70;2.45;;;;;;;;;;5032486;28;20207;-85
2023/02/07 15:15:26;;;;;;;2.65;2.45;;;;;;;;;;5032046;28;20202;-85